sensor_id;sensor_type;location;lat;lon;timestamp;temperature;humidity
51021;DHT22;38907;45.562;8.856;2022-12-10T00:01:38;5.10;99.90
51021;DHT22;38907;45.562;8.856;2022-12-10T00:06:42;5.20;99.90
51021;DHT22;38907;45.562;8.856;2022-12-10T00:11:45;5.20;99.90
51021;DHT22;38907;45.562;8.856;2022-12-10T00:16:47;5.00;99.90
51021;DHT22;38907;45.562;8.856;2022-12-10T00:21:49;5.10;99.90
51021;DHT22;38907;45.562;8.856;2022-12-10T00:26:52;5.00;99.90
51021;DHT22;38907;45.562;8.856;2022-12-10T00:31:54;5.00;99.90
51021;DHT22;38907;45.562;8.856;2022-12-10T00:36:56;5.00;99.90
51021;DHT22;38907;45.562;8.856;2022-12-10T00:41:59;5.00;99.90
51021;DHT22;38907;45.562;8.856;2022-12-10T00:47:01;5.10;99.90
51021;DHT22;38907;45.562;8.856;2022-12-10T00:52:03;5.00;99.90
51021;DHT22;38907;45.562;8.856;2022-12-10T00:57:06;5.00;99.90
51021;DHT22;38907;45.562;8.856;2022-12-10T01:02:08;5.00;99.90
51021;DHT22;38907;45.562;8.856;2022-12-10T01:07:10;5.00;99.90
51021;DHT22;38907;45.562;8.856;2022-12-10T01:12:13;5.10;99.90
51021;DHT22;38907;45.562;8.856;2022-12-10T01:17:15;5.00;99.90
51021;DHT22;38907;45.562;8.856;2022-12-10T01:22:17;5.10;99.90
51021;DHT22;38907;45.562;8.856;2022-12-10T01:27:20;5.10;99.90
51021;DHT22;38907;45.562;8.856;2022-12-10T01:32:22;5.10;99.90
51021;DHT22;38907;45.562;8.856;2022-12-10T01:37:24;5.10;99.90
51021;DHT22;38907;45.562;8.856;2022-12-10T01:42:27;5.10;99.90
51021;DHT22;38907;45.562;8.856;2022-12-10T01:47:29;5.10;99.90
51021;DHT22;38907;45.562;8.856;2022-12-10T01:52:31;5.10;99.90
51021;DHT22;38907;45.562;8.856;2022-12-10T01:57:34;5.10;99.90
51021;DHT22;38907;45.562;8.856;2022-12-10T02:02:41;5.10;99.90
51021;DHT22;38907;45.562;8.856;2022-12-10T02:07:57;5.10;99.90
51021;DHT22;38907;45.562;8.856;2022-12-10T02:13:06;5.20;99.90
51021;DHT22;38907;45.562;8.856;2022-12-10T02:18:13;5.20;99.90
51021;DHT22;38907;45.562;8.856;2022-12-10T02:23:20;5.10;99.90
51021;DHT22;38907;45.562;8.856;2022-12-10T02:28:32;5.20;99.90
51021;DHT22;38907;45.562;8.856;2022-12-10T02:33:39;5.20;99.90
51021;DHT22;38907;45.562;8.856;2022-12-10T02:38:43;5.20;99.90
51021;DHT22;38907;45.562;8.856;2022-12-10T02:43:48;5.20;99.90
51021;DHT22;38907;45.562;8.856;2022-12-10T02:48:53;5.20;99.90
51021;DHT22;38907;45.562;8.856;2022-12-10T02:53:59;5.20;99.90
51021;DHT22;38907;45.562;8.856;2022-12-10T02:59:07;5.20;99.90
51021;DHT22;38907;45.562;8.856;2022-12-10T03:04:20;5.20;99.90
51021;DHT22;38907;45.562;8.856;2022-12-10T03:09:29;5.20;99.90
51021;DHT22;38907;45.562;8.856;2022-12-10T03:14:33;5.10;99.90
51021;DHT22;38907;45.562;8.856;2022-12-10T03:19:38;5.10;99.90
51021;DHT22;38907;45.562;8.856;2022-12-10T03:24:42;5.10;99.90
51021;DHT22;38907;45.562;8.856;2022-12-10T03:29:47;5.00;99.90
51021;DHT22;38907;45.562;8.856;2022-12-10T03:34:52;5.00;99.90
51021;DHT22;38907;45.562;8.856;2022-12-10T03:39:55;5.10;99.90
51021;DHT22;38907;45.562;8.856;2022-12-10T03:44:57;5.10;99.90
51021;DHT22;38907;45.562;8.856;2022-12-10T03:50:00;5.10;99.90
51021;DHT22;38907;45.562;8.856;2022-12-10T03:55:02;5.10;99.90
51021;DHT22;38907;45.562;8.856;2022-12-10T04:00:06;5.00;99.90
51021;DHT22;38907;45.562;8.856;2022-12-10T04:05:09;5.00;99.90
51021;DHT22;38907;45.562;8.856;2022-12-10T04:10:12;5.00;99.90
51021;DHT22;38907;45.562;8.856;2022-12-10T04:15:14;5.00;99.90
51021;DHT22;38907;45.562;8.856;2022-12-10T04:20:34;5.00;99.90
51021;DHT22;38907;45.562;8.856;2022-12-10T04:25:54;5.00;99.90
51021;DHT22;38907;45.562;8.856;2022-12-10T04:31:12;4.90;99.90
51021;DHT22;38907;45.562;8.856;2022-12-10T04:36:15;5.00;99.90
51021;DHT22;38907;45.562;8.856;2022-12-10T04:41:17;4.90;99.90
51021;DHT22;38907;45.562;8.856;2022-12-10T04:46:19;5.00;99.90
51021;DHT22;38907;45.562;8.856;2022-12-10T04:51:22;5.00;99.90
51021;DHT22;38907;45.562;8.856;2022-12-10T04:56:24;5.00;99.90
51021;DHT22;38907;45.562;8.856;2022-12-10T05:01:27;5.00;99.90
51021;DHT22;38907;45.562;8.856;2022-12-10T05:06:31;5.00;99.90
51021;DHT22;38907;45.562;8.856;2022-12-10T05:11:33;5.10;99.90
51021;DHT22;38907;45.562;8.856;2022-12-10T05:16:35;5.10;99.90
51021;DHT22;38907;45.562;8.856;2022-12-10T05:21:38;5.00;99.90
51021;DHT22;38907;45.562;8.856;2022-12-10T05:26:57;5.00;99.90
51021;DHT22;38907;45.562;8.856;2022-12-10T05:31:59;5.00;99.90
51021;DHT22;38907;45.562;8.856;2022-12-10T05:37:03;5.00;99.90
51021;DHT22;38907;45.562;8.856;2022-12-10T05:42:06;5.00;99.90
51021;DHT22;38907;45.562;8.856;2022-12-10T05:47:07;5.10;99.90
51021;DHT22;38907;45.562;8.856;2022-12-10T05:52:11;5.10;99.90
51021;DHT22;38907;45.562;8.856;2022-12-10T05:57:13;5.10;99.90
51021;DHT22;38907;45.562;8.856;2022-12-10T06:02:14;5.20;99.90
51021;DHT22;38907;45.562;8.856;2022-12-10T06:07:18;5.10;99.90
51021;DHT22;38907;45.562;8.856;2022-12-10T06:12:19;5.10;99.90
51021;DHT22;38907;45.562;8.856;2022-12-10T06:17:21;5.20;99.90
51021;DHT22;38907;45.562;8.856;2022-12-10T06:22:25;5.20;99.90
51021;DHT22;38907;45.562;8.856;2022-12-10T06:27:28;5.20;99.90
51021;DHT22;38907;45.562;8.856;2022-12-10T06:32:30;5.20;99.90
51021;DHT22;38907;45.562;8.856;2022-12-10T06:37:33;5.10;99.90
51021;DHT22;38907;45.562;8.856;2022-12-10T06:42:35;5.20;99.90
51021;DHT22;38907;45.562;8.856;2022-12-10T06:47:37;5.10;99.90
51021;DHT22;38907;45.562;8.856;2022-12-10T06:52:41;5.10;99.90
51021;DHT22;38907;45.562;8.856;2022-12-10T06:57:43;5.10;99.90
51021;DHT22;38907;45.562;8.856;2022-12-10T07:02:44;5.10;99.90
51021;DHT22;38907;45.562;8.856;2022-12-10T07:07:48;5.10;99.90
51021;DHT22;38907;45.562;8.856;2022-12-10T07:12:50;5.10;99.90
51021;DHT22;38907;45.562;8.856;2022-12-10T07:17:51;5.10;99.90
51021;DHT22;38907;45.562;8.856;2022-12-10T07:22:55;5.10;99.90
51021;DHT22;38907;45.562;8.856;2022-12-10T07:27:56;5.20;99.90
51021;DHT22;38907;45.562;8.856;2022-12-10T07:32:58;5.20;99.90
51021;DHT22;38907;45.562;8.856;2022-12-10T07:38:02;5.20;99.90
51021;DHT22;38907;45.562;8.856;2022-12-10T07:43:03;5.20;99.90
51021;DHT22;38907;45.562;8.856;2022-12-10T07:48:05;5.30;99.90
51021;DHT22;38907;45.562;8.856;2022-12-10T07:53:09;5.30;99.90
51021;DHT22;38907;45.562;8.856;2022-12-10T07:58:11;5.30;99.90
51021;DHT22;38907;45.562;8.856;2022-12-10T08:03:13;5.40;99.90
51021;DHT22;38907;45.562;8.856;2022-12-10T08:08:17;5.40;99.90
51021;DHT22;38907;45.562;8.856;2022-12-10T08:13:18;5.40;99.90
51021;DHT22;38907;45.562;8.856;2022-12-10T08:18:20;5.40;99.90
51021;DHT22;38907;45.562;8.856;2022-12-10T08:23:24;5.40;99.90
51021;DHT22;38907;45.562;8.856;2022-12-10T08:28:26;5.50;99.90
51021;DHT22;38907;45.562;8.856;2022-12-10T08:33:28;5.50;99.90
51021;DHT22;38907;45.562;8.856;2022-12-10T08:38:32;5.50;99.90
51021;DHT22;38907;45.562;8.856;2022-12-10T08:43:34;5.50;99.90
51021;DHT22;38907;45.562;8.856;2022-12-10T08:48:37;5.60;99.90
51021;DHT22;38907;45.562;8.856;2022-12-10T08:53:40;5.60;99.90
51021;DHT22;38907;45.562;8.856;2022-12-10T08:58:42;5.60;99.90
51021;DHT22;38907;45.562;8.856;2022-12-10T09:03:45;5.50;99.90
51021;DHT22;38907;45.562;8.856;2022-12-10T09:08:48;5.50;99.90
51021;DHT22;38907;45.562;8.856;2022-12-10T09:13:50;5.60;99.90
51021;DHT22;38907;45.562;8.856;2022-12-10T09:18:52;5.60;99.90
51021;DHT22;38907;45.562;8.856;2022-12-10T09:23:55;5.60;99.90
51021;DHT22;38907;45.562;8.856;2022-12-10T09:28:57;5.60;99.90
51021;DHT22;38907;45.562;8.856;2022-12-10T09:34:00;5.50;99.90
51021;DHT22;38907;45.562;8.856;2022-12-10T09:39:03;5.60;99.90
51021;DHT22;38907;45.562;8.856;2022-12-10T09:44:08;5.70;99.90
51021;DHT22;38907;45.562;8.856;2022-12-10T09:49:18;5.70;99.90
51021;DHT22;38907;45.562;8.856;2022-12-10T09:54:25;5.90;99.90
51021;DHT22;38907;45.562;8.856;2022-12-10T09:59:31;5.90;99.90
51021;DHT22;38907;45.562;8.856;2022-12-10T10:04:34;5.90;99.90
51021;DHT22;38907;45.562;8.856;2022-12-10T10:09:39;6.00;99.90
51021;DHT22;38907;45.562;8.856;2022-12-10T10:14:43;6.00;99.90
51021;DHT22;38907;45.562;8.856;2022-12-10T10:19:45;6.10;99.90
51021;DHT22;38907;45.562;8.856;2022-12-10T10:24:49;6.10;99.90
51021;DHT22;38907;45.562;8.856;2022-12-10T10:29:52;6.20;99.90
51021;DHT22;38907;45.562;8.856;2022-12-10T10:34:54;6.20;99.90
51021;DHT22;38907;45.562;8.856;2022-12-10T10:39:58;6.30;99.90
51021;DHT22;38907;45.562;8.856;2022-12-10T10:45:02;6.40;99.90
51021;DHT22;38907;45.562;8.856;2022-12-10T10:50:05;6.40;99.90
51021;DHT22;38907;45.562;8.856;2022-12-10T10:55:30;6.40;99.90
51021;DHT22;38907;45.562;8.856;2022-12-10T17:36:37;5.00;99.90
51021;DHT22;38907;45.562;8.856;2022-12-10T17:41:38;5.00;99.90
51021;DHT22;38907;45.562;8.856;2022-12-10T17:46:40;5.00;99.90
51021;DHT22;38907;45.562;8.856;2022-12-10T17:51:44;4.80;99.90
51021;DHT22;38907;45.562;8.856;2022-12-10T17:56:46;4.80;99.90
51021;DHT22;38907;45.562;8.856;2022-12-10T18:01:48;4.80;99.90
51021;DHT22;38907;45.562;8.856;2022-12-10T18:06:52;4.80;99.90
51021;DHT22;38907;45.562;8.856;2022-12-10T18:11:54;4.80;99.90
51021;DHT22;38907;45.562;8.856;2022-12-10T18:16:57;4.80;99.90
51021;DHT22;38907;45.562;8.856;2022-12-10T18:22:00;4.70;99.90
51021;DHT22;38907;45.562;8.856;2022-12-10T18:27:02;4.50;99.90
51021;DHT22;38907;45.562;8.856;2022-12-10T18:32:04;4.60;99.90
51021;DHT22;38907;45.562;8.856;2022-12-10T18:37:09;4.30;99.90
51021;DHT22;38907;45.562;8.856;2022-12-10T18:42:11;4.30;99.90
51021;DHT22;38907;45.562;8.856;2022-12-10T18:47:12;4.40;99.90
51021;DHT22;38907;45.562;8.856;2022-12-10T18:52:16;4.30;99.90
51021;DHT22;38907;45.562;8.856;2022-12-10T18:57:17;4.00;99.90
51021;DHT22;38907;45.562;8.856;2022-12-10T19:02:19;4.00;99.90
51021;DHT22;38907;45.562;8.856;2022-12-10T19:07:23;4.00;99.90
51021;DHT22;38907;45.562;8.856;2022-12-10T19:12:24;3.70;99.90
51021;DHT22;38907;45.562;8.856;2022-12-10T19:17:26;3.80;99.90
51021;DHT22;38907;45.562;8.856;2022-12-10T19:22:30;3.90;99.90
51021;DHT22;38907;45.562;8.856;2022-12-10T19:27:31;3.90;99.90
51021;DHT22;38907;45.562;8.856;2022-12-10T19:32:33;3.90;99.90
51021;DHT22;38907;45.562;8.856;2022-12-10T19:37:37;3.90;99.90
51021;DHT22;38907;45.562;8.856;2022-12-10T19:42:40;4.00;99.90
51021;DHT22;38907;45.562;8.856;2022-12-10T19:47:42;4.00;99.90
51021;DHT22;38907;45.562;8.856;2022-12-10T19:52:45;4.00;99.90
51021;DHT22;38907;45.562;8.856;2022-12-10T19:57:48;4.20;99.90
51021;DHT22;38907;45.562;8.856;2022-12-10T20:02:50;4.10;99.90
51021;DHT22;38907;45.562;8.856;2022-12-10T20:07:53;4.10;99.90
51021;DHT22;38907;45.562;8.856;2022-12-10T20:12:55;4.20;99.90
51021;DHT22;38907;45.562;8.856;2022-12-10T20:17:57;3.90;99.90
51021;DHT22;38907;45.562;8.856;2022-12-10T20:23:00;3.90;99.90
51021;DHT22;38907;45.562;8.856;2022-12-10T20:28:03;3.90;99.90
51021;DHT22;38907;45.562;8.856;2022-12-10T20:33:05;3.90;99.90
51021;DHT22;38907;45.562;8.856;2022-12-10T20:38:10;3.70;99.90
51021;DHT22;38907;45.562;8.856;2022-12-10T20:43:13;3.60;99.90
51021;DHT22;38907;45.562;8.856;2022-12-10T20:48:15;3.70;99.90
51021;DHT22;38907;45.562;8.856;2022-12-10T20:53:18;3.60;99.90
51021;DHT22;38907;45.562;8.856;2022-12-10T20:58:20;3.40;99.90
51021;DHT22;38907;45.562;8.856;2022-12-10T21:03:22;3.50;99.90
51021;DHT22;38907;45.562;8.856;2022-12-10T21:08:25;3.60;99.90
51021;DHT22;38907;45.562;8.856;2022-12-10T21:13:28;3.50;99.90
51021;DHT22;38907;45.562;8.856;2022-12-10T21:18:30;3.30;99.90
51021;DHT22;38907;45.562;8.856;2022-12-10T21:23:34;3.30;99.90
51021;DHT22;38907;45.562;8.856;2022-12-10T21:28:35;3.20;99.90
51021;DHT22;38907;45.562;8.856;2022-12-10T21:33:37;3.20;99.90
51021;DHT22;38907;45.562;8.856;2022-12-10T21:38:41;3.20;99.90
51021;DHT22;38907;45.562;8.856;2022-12-10T21:43:43;3.30;99.90
51021;DHT22;38907;45.562;8.856;2022-12-10T21:48:45;3.30;99.90
51021;DHT22;38907;45.562;8.856;2022-12-10T21:53:48;3.40;99.90
51021;DHT22;38907;45.562;8.856;2022-12-10T21:58:50;3.20;99.90
51021;DHT22;38907;45.562;8.856;2022-12-10T22:03:52;3.10;99.90
51021;DHT22;38907;45.562;8.856;2022-12-10T22:08:55;3.00;99.90
51021;DHT22;38907;45.562;8.856;2022-12-10T22:13:58;3.00;99.90
51021;DHT22;38907;45.562;8.856;2022-12-10T22:19:00;3.00;99.90
51021;DHT22;38907;45.562;8.856;2022-12-10T22:24:03;3.00;99.90
51021;DHT22;38907;45.562;8.856;2022-12-10T22:29:05;3.10;99.90
51021;DHT22;38907;45.562;8.856;2022-12-10T22:34:07;3.00;99.90
51021;DHT22;38907;45.562;8.856;2022-12-10T22:39:10;3.20;99.90
51021;DHT22;38907;45.562;8.856;2022-12-10T22:44:12;3.40;99.90
51021;DHT22;38907;45.562;8.856;2022-12-10T22:49:14;3.90;99.90
51021;DHT22;38907;45.562;8.856;2022-12-10T22:54:17;4.40;99.90
51021;DHT22;38907;45.562;8.856;2022-12-10T22:59:19;5.00;99.90
51021;DHT22;38907;45.562;8.856;2022-12-10T23:04:21;5.50;99.90
51021;DHT22;38907;45.562;8.856;2022-12-10T23:09:25;6.20;98.50
51021;DHT22;38907;45.562;8.856;2022-12-10T23:14:27;6.40;98.20
51021;DHT22;38907;45.562;8.856;2022-12-10T23:19:29;6.40;97.70
51021;DHT22;38907;45.562;8.856;2022-12-10T23:24:32;6.50;96.30
51021;DHT22;38907;45.562;8.856;2022-12-10T23:29:34;6.70;95.50
51021;DHT22;38907;45.562;8.856;2022-12-10T23:34:36;6.70;95.20
51021;DHT22;38907;45.562;8.856;2022-12-10T23:39:40;6.80;94.10
51021;DHT22;38907;45.562;8.856;2022-12-10T23:44:42;6.80;94.00
51021;DHT22;38907;45.562;8.856;2022-12-10T23:49:43;6.70;94.00
51021;DHT22;38907;45.562;8.856;2022-12-10T23:54:47;6.60;93.40
51021;DHT22;38907;45.562;8.856;2022-12-10T23:59:50;6.70;92.90
